Time;durP1;ratioP1;P1;durP2;ratioP2;P2;SDS_P1;SDS_P2;PMS_P1;PMS_P2;Temp;Humidity;BMP_temperature;BMP_pressure;BME280_temperature;BME280_humidity;BME280_pressure;Samples;Min_cycle;Max_cycle;Signal;HPM_P1;HPM_P2
2023/05/08 00:02:25;;;;;;;2.95;2.65;;;;;;;;;;5049819;28;20049;-68
2023/05/08 00:04:52;;;;;;;3.25;2.58;;;;;;;;;;5050120;28;20045;-68
2023/05/08 00:07:18;;;;;;;3.17;2.80;;;;;;;;;;5049752;28;20048;-67
2023/05/08 00:09:45;;;;;;;4.22;2.60;;;;;;;;;;5050244;28;20406;-68
2023/05/08 00:12:13;;;;;;;3.72;3.22;;;;;;;;;;5049597;28;20044;-68
2023/05/08 00:14:40;;;;;;;2.92;2.63;;;;;;;;;;5052375;28;20041;-67
2023/05/08 00:17:06;;;;;;;3.47;3.17;;;;;;;;;;5053869;28;20546;-68
2023/05/08 00:19:33;;;;;;;3.90;3.00;;;;;;;;;;5053504;28;20487;-68
2023/05/08 00:21:59;;;;;;;3.83;2.85;;;;;;;;;;5053652;28;20049;-68
2023/05/08 00:24:26;;;;;;;3.63;2.80;;;;;;;;;;5053262;28;20048;-68
2023/05/08 00:26:52;;;;;;;3.38;2.80;;;;;;;;;;5053421;28;20056;-68
2023/05/08 00:29:20;;;;;;;3.30;2.90;;;;;;;;;;5053653;28;20045;-68
2023/05/08 00:31:47;;;;;;;3.05;2.65;;;;;;;;;;5053535;28;20045;-68
2023/05/08 00:34:13;;;;;;;3.00;2.67;;;;;;;;;;5053451;28;20045;-67
2023/05/08 00:36:40;;;;;;;3.33;2.90;;;;;;;;;;5053396;28;20045;-67
2023/05/08 00:39:07;;;;;;;3.63;2.90;;;;;;;;;;5053293;28;20055;-68
2023/05/08 00:41:33;;;;;;;3.90;2.85;;;;;;;;;;5053442;28;20426;-68
2023/05/08 00:44:00;;;;;;;3.13;2.80;;;;;;;;;;5052688;28;20049;-68
2023/05/08 00:46:28;;;;;;;4.60;2.88;;;;;;;;;;5053267;28;20053;-67
2023/05/08 00:48:54;;;;;;;4.60;2.90;;;;;;;;;;5052774;28;20104;-68
2023/05/08 00:51:22;;;;;;;4.13;3.38;;;;;;;;;;5053177;28;20045;-68
2023/05/08 00:53:49;;;;;;;4.25;3.83;;;;;;;;;;5052984;28;20045;-67
2023/05/08 00:56:16;;;;;;;3.75;2.90;;;;;;;;;;5052989;28;20493;-68
2023/05/08 00:58:44;;;;;;;4.55;3.05;;;;;;;;;;5052607;28;20131;-68
2023/05/08 01:01:11;;;;;;;3.97;3.30;;;;;;;;;;5053260;28;20048;-68
2023/05/08 01:03:40;;;;;;;5.72;3.08;;;;;;;;;;5052843;28;20049;-68
2023/05/08 01:06:07;;;;;;;6.63;3.80;;;;;;;;;;5052893;28;20049;-67
2023/05/08 01:08:34;;;;;;;3.92;3.53;;;;;;;;;;5052666;28;20045;-68
2023/05/08 01:11:10;;;;;;;3.65;3.30;;;;;;;;;;5052837;28;20051;-67
2023/05/08 01:13:49;;;;;;;3.90;3.20;;;;;;;;;;5053207;28;20072;-68
2023/05/08 01:16:19;;;;;;;4.13;3.53;;;;;;;;;;5052644;28;20084;-67
2023/05/08 01:18:52;;;;;;;5.25;3.25;;;;;;;;;;5053144;28;20438;-67
2023/05/08 01:21:30;;;;;;;5.00;4.00;;;;;;;;;;5052970;28;20055;-68
2023/05/08 01:24:13;;;;;;;3.35;3.05;;;;;;;;;;5052802;28;20091;-68
2023/05/08 01:27:01;;;;;;;4.63;3.33;;;;;;;;;;5051100;28;20486;-68
2023/05/08 01:30:07;;;;;;;5.10;3.42;;;;;;;;;;5052332;28;20049;-67
2023/05/08 01:32:38;;;;;;;3.38;3.03;;;;;;;;;;5039851;28;20487;-67
2023/05/08 01:35:16;;;;;;;3.60;3.00;;;;;;;;;;5052223;28;20055;-67
2023/05/08 01:37:51;;;;;;;3.63;3.33;;;;;;;;;;5052324;28;20051;-67
2023/05/08 01:40:28;;;;;;;4.03;3.38;;;;;;;;;;5052126;28;20045;-68
2023/05/08 01:43:03;;;;;;;7.70;3.53;;;;;;;;;;5052548;28;20048;-67
2023/05/08 01:45:34;;;;;;;5.93;3.65;;;;;;;;;;5052003;28;20051;-68
2023/05/08 01:48:05;;;;;;;5.00;3.05;;;;;;;;;;5052178;28;20075;-68
2023/05/08 01:50:36;;;;;;;4.20;3.45;;;;;;;;;;5052226;28;20475;-68
2023/05/08 01:53:08;;;;;;;4.10;3.70;;;;;;;;;;5052375;28;20045;-68
2023/05/08 01:55:37;;;;;;;6.00;3.78;;;;;;;;;;5051789;28;20048;-67
2023/05/08 01:58:08;;;;;;;4.43;3.65;;;;;;;;;;5051998;28;20045;-67
2023/05/08 02:00:36;;;;;;;4.45;3.70;;;;;;;;;;5051913;28;20049;-67
2023/05/08 02:03:06;;;;;;;5.20;3.92;;;;;;;;;;5051955;28;20045;-68
2023/05/08 02:05:34;;;;;;;6.20;4.20;;;;;;;;;;5051494;28;20052;-68
2023/05/08 02:08:02;;;;;;;3.63;3.33;;;;;;;;;;5052112;28;20049;-68
2023/05/08 02:10:29;;;;;;;4.50;4.10;;;;;;;;;;5051937;28;20045;-68
2023/05/08 02:12:58;;;;;;;6.90;3.85;;;;;;;;;;5051404;28;20048;-68
2023/05/08 02:15:27;;;;;;;4.32;3.55;;;;;;;;;;5051700;28;20051;-67
2023/05/08 02:17:55;;;;;;;4.20;3.50;;;;;;;;;;5051132;28;20406;-67
2023/05/08 02:20:23;;;;;;;4.70;4.10;;;;;;;;;;5051657;28;20452;-68
2023/05/08 02:22:51;;;;;;;4.35;3.55;;;;;;;;;;5051127;28;20041;-68
2023/05/08 02:25:19;;;;;;;5.72;3.60;;;;;;;;;;5051303;28;20041;-68
2023/05/08 02:27:47;;;;;;;4.43;3.78;;;;;;;;;;5050988;28;20059;-68
2023/05/08 02:30:16;;;;;;;4.65;4.03;;;;;;;;;;5051344;28;20048;-68
2023/05/08 02:32:43;;;;;;;4.07;3.67;;;;;;;;;;5051085;28;20128;-68
2023/05/08 02:35:13;;;;;;;6.00;4.40;;;;;;;;;;5050751;28;20076;-68
2023/05/08 02:37:42;;;;;;;6.10;4.10;;;;;;;;;;5050691;28;20068;-68
2023/05/08 02:40:11;;;;;;;4.90;3.70;;;;;;;;;;5051352;28;20055;-67
2023/05/08 02:42:38;;;;;;;5.28;4.28;;;;;;;;;;5050647;28;20049;-67
2023/05/08 02:45:05;;;;;;;5.15;3.85;;;;;;;;;;5051022;28;20159;-67
2023/05/08 02:47:42;;;;;;;7.40;3.92;;;;;;;;;;5050894;28;20049;-67
2023/05/08 02:50:16;;;;;;;4.82;3.65;;;;;;;;;;5051172;28;20053;-67
2023/05/08 02:52:47;;;;;;;3.92;3.53;;;;;;;;;;5050543;28;20053;-67
2023/05/08 02:55:29;;;;;;;4.00;3.65;;;;;;;;;;5050930;28;20067;-67
2023/05/08 02:58:08;;;;;;;4.47;3.90;;;;;;;;;;5050514;28;20051;-66
2023/05/08 03:00:43;;;;;;;5.35;4.07;;;;;;;;;;5051115;28;20118;-67
2023/05/08 03:03:17;;;;;;;5.88;3.67;;;;;;;;;;5050326;28;20055;-66
2023/05/08 03:05:49;;;;;;;4.28;3.53;;;;;;;;;;5050413;28;20049;-66
2023/05/08 03:08:21;;;;;;;5.57;4.27;;;;;;;;;;5050752;28;20405;-67
2023/05/08 03:10:52;;;;;;;4.72;4.00;;;;;;;;;;5051018;28;20072;-66
2023/05/08 03:13:20;;;;;;;4.25;3.85;;;;;;;;;;5050835;28;20048;-66
2023/05/08 03:15:52;;;;;;;4.30;3.90;;;;;;;;;;5050646;28;20482;-67
2023/05/08 03:18:21;;;;;;;8.45;4.13;;;;;;;;;;5050139;28;20045;-67
2023/05/08 03:20:51;;;;;;;5.13;4.38;;;;;;;;;;5050506;28;20088;-67
2023/05/08 03:23:21;;;;;;;4.72;4.22;;;;;;;;;;5050518;28;20053;-66
2023/05/08 03:25:48;;;;;;;6.15;4.13;;;;;;;;;;5050412;28;20083;-67
2023/05/08 03:28:15;;;;;;;4.82;4.32;;;;;;;;;;5050383;28;20056;-69
2023/05/08 03:30:42;;;;;;;5.55;4.50;;;;;;;;;;5050191;28;20048;-68
2023/05/08 03:33:12;;;;;;;5.00;4.50;;;;;;;;;;5050276;28;20041;-67
2023/05/08 03:35:39;;;;;;;5.20;4.28;;;;;;;;;;5049912;28;20507;-68
2023/05/08 03:38:07;;;;;;;5.93;4.30;;;;;;;;;;5049910;28;20052;-68
2023/05/08 03:40:37;;;;;;;5.47;4.30;;;;;;;;;;5050138;28;20551;-68
2023/05/08 03:43:06;;;;;;;6.20;4.35;;;;;;;;;;5050484;28;20056;-68
2023/05/08 03:45:35;;;;;;;5.78;4.47;;;;;;;;;;5050132;28;20051;-68
2023/05/08 03:48:03;;;;;;;8.13;4.70;;;;;;;;;;5050045;28;20041;-68
2023/05/08 03:50:31;;;;;;;4.53;4.13;;;;;;;;;;5053980;28;20051;-68
2023/05/08 03:52:58;;;;;;;4.82;4.32;;;;;;;;;;5054194;28;20053;-68
2023/05/08 03:55:25;;;;;;;5.55;4.57;;;;;;;;;;5053871;28;20051;-68
2023/05/08 03:57:59;;;;;;;6.78;4.80;;;;;;;;;;5054069;28;20041;-68
2023/05/08 04:00:33;;;;;;;6.85;4.22;;;;;;;;;;5054132;28;20049;-68
2023/05/08 04:03:13;;;;;;;5.43;4.40;;;;;;;;;;5053807;28;20045;-68
2023/05/08 04:05:47;;;;;;;5.85;4.57;;;;;;;;;;5054193;28;20041;-68
2023/05/08 04:08:17;;;;;;;4.95;4.38;;;;;;;;;;5054220;28;20048;-68
2023/05/08 04:10:49;;;;;;;5.50;4.40;;;;;;;;;;5054258;28;20479;-68
2023/05/08 04:13:22;;;;;;;5.15;4.40;;;;;;;;;;5054246;28;20059;-68
2023/05/08 04:15:52;;;;;;;7.18;5.03;;;;;;;;;;5053493;28;20045;-68
2023/05/08 04:18:25;;;;;;;7.65;4.68;;;;;;;;;;5054258;28;20049;-68
2023/05/08 04:20:55;;;;;;;6.50;4.82;;;;;;;;;;5053932;28;20049;-68
2023/05/08 04:23:23;;;;;;;4.93;4.43;;;;;;;;;;5054143;28;20060;-67
2023/05/08 04:25:52;;;;;;;7.57;4.85;;;;;;;;;;5053631;28;20049;-68
2023/05/08 04:28:21;;;;;;;5.85;5.03;;;;;;;;;;5053754;28;20103;-68
2023/05/08 04:30:48;;;;;;;6.20;5.05;;;;;;;;;;5053765;28;20421;-67
2023/05/08 04:33:17;;;;;;;6.43;5.10;;;;;;;;;;5053379;28;20135;-68
2023/05/08 04:35:45;;;;;;;5.43;4.93;;;;;;;;;;5053272;28;20049;-67
2023/05/08 04:38:11;;;;;;;5.70;4.55;;;;;;;;;;5053564;28;20115;-68
2023/05/08 04:40:38;;;;;;;6.47;5.13;;;;;;;;;;5053307;28;20059;-67
2023/05/08 04:43:04;;;;;;;5.63;4.88;;;;;;;;;;5053313;28;20053;-68
2023/05/08 04:45:32;;;;;;;6.97;4.85;;;;;;;;;;5053512;28;20387;-68
2023/05/08 04:47:59;;;;;;;6.80;4.97;;;;;;;;;;5053581;28;20055;-68
2023/05/08 04:50:25;;;;;;;6.03;5.43;;;;;;;;;;5053411;28;20049;-67
2023/05/08 04:52:52;;;;;;;6.80;5.03;;;;;;;;;;5052725;28;20045;-67
2023/05/08 04:55:18;;;;;;;8.30;5.13;;;;;;;;;;5053305;28;20494;-67
2023/05/08 04:57:45;;;;;;;7.13;5.00;;;;;;;;;;5052467;28;20049;-68
2023/05/08 05:00:12;;;;;;;7.28;5.25;;;;;;;;;;5052517;28;20045;-67
2023/05/08 05:02:40;;;;;;;6.40;5.05;;;;;;;;;;5085042;22;20070;-68
2023/05/08 05:05:08;;;;;;;5.65;5.05;;;;;;;;;;5093347;28;20429;-71
2023/05/08 05:07:34;;;;;;;6.53;5.00;;;;;;;;;;5092112;28;20052;-70
2023/05/08 05:10:01;;;;;;;8.60;5.45;;;;;;;;;;5092798;28;20044;-69
2023/05/08 05:12:28;;;;;;;6.20;5.45;;;;;;;;;;5092769;28;20516;-69
2023/05/08 05:14:54;;;;;;;8.60;5.75;;;;;;;;;;5092408;28;20127;-69
2023/05/08 05:17:21;;;;;;;6.32;5.50;;;;;;;;;;5092262;28;20044;-69
2023/05/08 05:19:49;;;;;;;6.35;5.20;;;;;;;;;;5092275;28;20044;-69
2023/05/08 05:22:16;;;;;;;10.50;5.70;;;;;;;;;;5092616;28;20401;-69
2023/05/08 05:24:42;;;;;;;9.02;6.00;;;;;;;;;;5092723;28;20047;-69
2023/05/08 05:27:09;;;;;;;8.82;5.40;;;;;;;;;;5092120;28;20290;-69
2023/05/08 05:29:36;;;;;;;5.85;5.30;;;;;;;;;;5092500;28;20040;-69
2023/05/08 05:32:03;;;;;;;7.68;5.35;;;;;;;;;;5092247;28;20044;-69
2023/05/08 05:34:29;;;;;;;8.25;5.95;;;;;;;;;;5092073;28;20055;-69
2023/05/08 05:36:57;;;;;;;6.03;5.30;;;;;;;;;;5092073;28;20044;-69
2023/05/08 05:39:24;;;;;;;10.40;8.68;;;;;;;;;;5091715;28;20040;-71
2023/05/08 05:41:50;;;;;;;6.43;5.63;;;;;;;;;;5092134;28;20051;-69
2023/05/08 05:44:17;;;;;;;7.03;5.50;;;;;;;;;;5091634;28;20044;-69
2023/05/08 05:46:44;;;;;;;5.47;4.70;;;;;;;;;;5092228;28;20424;-69
2023/05/08 05:49:11;;;;;;;5.65;4.60;;;;;;;;;;5091153;28;20048;-69
2023/05/08 05:51:38;;;;;;;5.22;4.55;;;;;;;;;;5092400;28;20101;-69
2023/05/08 05:54:06;;;;;;;8.27;4.57;;;;;;;;;;5091399;28;20059;-69
2023/05/08 05:56:32;;;;;;;6.03;4.25;;;;;;;;;;5092119;28;20048;-70
2023/05/08 05:58:59;;;;;;;5.15;4.47;;;;;;;;;;5091330;28;20044;-69
2023/05/08 06:01:27;;;;;;;6.95;3.78;;;;;;;;;;5091857;28;20050;-71
2023/05/08 06:03:54;;;;;;;5.72;4.40;;;;;;;;;;5091215;28;20471;-69
2023/05/08 06:06:21;;;;;;;6.60;3.92;;;;;;;;;;5091811;28;20044;-70
2023/05/08 06:08:48;;;;;;;4.68;4.10;;;;;;;;;;5091280;28;20127;-69
2023/05/08 06:11:16;;;;;;;5.45;4.20;;;;;;;;;;5090963;28;20052;-71
2023/05/08 06:13:43;;;;;;;6.82;3.58;;;;;;;;;;5091291;28;20051;-70
2023/05/08 06:16:09;;;;;;;5.70;4.32;;;;;;;;;;5091379;28;20567;-70
2023/05/08 06:18:36;;;;;;;4.50;4.10;;;;;;;;;;5090714;28;20044;-70
2023/05/08 06:21:03;;;;;;;6.25;4.20;;;;;;;;;;5091547;28;20044;-70
2023/05/08 06:23:29;;;;;;;4.68;3.83;;;;;;;;;;5091355;28;20101;-69
2023/05/08 06:25:56;;;;;;;4.68;4.10;;;;;;;;;;5091247;28;20489;-69
2023/05/08 06:28:24;;;;;;;5.40;4.00;;;;;;;;;;5090757;28;20044;-69
2023/05/08 06:30:51;;;;;;;5.60;4.00;;;;;;;;;;5091116;28;20467;-69
2023/05/08 06:33:18;;;;;;;5.50;4.43;;;;;;;;;;5091343;28;20079;-69
2023/05/08 06:35:46;;;;;;;4.32;3.55;;;;;;;;;;5091045;28;20048;-70
2023/05/08 06:38:13;;;;;;;3.97;3.60;;;;;;;;;;5090648;28;20052;-69
2023/05/08 06:40:42;;;;;;;5.05;3.63;;;;;;;;;;5090831;28;20044;-69
2023/05/08 06:43:09;;;;;;;5.38;3.63;;;;;;;;;;5090738;28;20547;-69
2023/05/08 06:45:37;;;;;;;6.82;4.13;;;;;;;;;;5090599;28;20052;-69
2023/05/08 06:48:03;;;;;;;4.35;3.50;;;;;;;;;;5090913;28;20067;-70
2023/05/08 06:50:31;;;;;;;5.10;3.78;;;;;;;;;;5090538;28;20054;-69
2023/05/08 06:52:57;;;;;;;5.65;4.25;;;;;;;;;;5090668;28;20048;-69
2023/05/08 06:55:24;;;;;;;4.13;3.72;;;;;;;;;;5091072;28;20398;-69
2023/05/08 06:57:50;;;;;;;4.60;3.88;;;;;;;;;;5090043;28;20045;-69
2023/05/08 07:00:17;;;;;;;4.65;3.80;;;;;;;;;;5090282;28;20044;-70
2023/05/08 07:02:45;;;;;;;4.57;4.10;;;;;;;;;;5090465;28;20098;-70
2023/05/08 07:05:11;;;;;;;7.40;6.03;;;;;;;;;;5090107;28;20052;-69
2023/05/08 07:07:38;;;;;;;12.48;5.22;;;;;;;;;;5090113;28;20055;-69
2023/05/08 07:10:05;;;;;;;4.45;3.80;;;;;;;;;;5090308;28;20043;-70
2023/05/08 07:12:32;;;;;;;4.43;4.00;;;;;;;;;;5090311;28;20048;-70
2023/05/08 07:14:58;;;;;;;5.00;4.50;;;;;;;;;;5090410;28;20395;-70
2023/05/08 07:17:25;;;;;;;6.03;4.57;;;;;;;;;;5089803;28;20536;-70
2023/05/08 07:19:53;;;;;;;5.38;4.88;;;;;;;;;;5090415;28;20051;-69
2023/05/08 07:22:20;;;;;;;5.72;4.97;;;;;;;;;;5090479;28;20059;-69
2023/05/08 07:24:46;;;;;;;7.07;4.65;;;;;;;;;;5089251;28;20040;-69
2023/05/08 07:27:13;;;;;;;5.72;5.22;;;;;;;;;;5089454;28;20083;-69
2023/05/08 07:29:41;;;;;;;6.07;5.47;;;;;;;;;;5090573;28;20055;-69
2023/05/08 07:32:08;;;;;;;6.00;5.40;;;;;;;;;;5090398;28;20055;-69
2023/05/08 07:34:34;;;;;;;6.72;6.03;;;;;;;;;;5090246;28;20427;-70
2023/05/08 07:37:02;;;;;;;5.72;5.18;;;;;;;;;;5089736;28;20131;-69
2023/05/08 07:39:29;;;;;;;5.82;5.03;;;;;;;;;;5087601;28;20051;-69
2023/05/08 07:41:56;;;;;;;7.20;5.38;;;;;;;;;;5089763;28;20044;-69
2023/05/08 07:44:22;;;;;;;6.32;5.40;;;;;;;;;;5090124;28;20126;-69
2023/05/08 07:46:49;;;;;;;8.75;5.00;;;;;;;;;;5089972;28;20040;-69
2023/05/08 07:49:16;;;;;;;6.50;5.28;;;;;;;;;;5089734;28;20048;-68
2023/05/08 07:51:42;;;;;;;7.30;5.55;;;;;;;;;;5090096;28;20051;-68
2023/05/08 07:54:10;;;;;;;6.80;5.97;;;;;;;;;;5089441;28;20051;-68
2023/05/08 07:56:37;;;;;;;6.30;5.70;;;;;;;;;;5090069;28;20508;-68
2023/05/08 07:59:03;;;;;;;6.10;5.50;;;;;;;;;;5089248;28;20050;-68
2023/05/08 08:01:30;;;;;;;10.07;5.80;;;;;;;;;;5090385;28;20051;-68
2023/05/08 08:03:56;;;;;;;6.38;5.57;;;;;;;;;;5089146;28;20135;-68
2023/05/08 08:06:23;;;;;;;6.57;5.63;;;;;;;;;;5089023;28;20433;-68
2023/05/08 08:08:49;;;;;;;6.70;5.53;;;;;;;;;;5088942;28;20063;-68
2023/05/08 08:11:17;;;;;;;6.15;5.05;;;;;;;;;;5088903;28;20051;-67
2023/05/08 08:13:44;;;;;;;6.40;5.38;;;;;;;;;;5090009;28;20401;-68
2023/05/08 08:16:10;;;;;;;10.38;5.55;;;;;;;;;;5089782;28;20438;-67
2023/05/08 08:18:37;;;;;;;5.60;5.07;;;;;;;;;;5081234;28;20483;-68
2023/05/08 08:21:06;;;;;;;5.78;5.15;;;;;;;;;;5068823;28;20049;-68
2023/05/08 08:23:32;;;;;;;5.30;4.80;;;;;;;;;;5069434;28;20620;-68
2023/05/08 08:25:59;;;;;;;4.95;4.20;;;;;;;;;;5068945;28;20044;-67
2023/05/08 08:28:27;;;;;;;4.97;4.15;;;;;;;;;;5069305;28;20472;-68
2023/05/08 08:30:54;;;;;;;6.03;3.92;;;;;;;;;;5069215;28;20048;-68
2023/05/08 08:33:20;;;;;;;5.85;4.60;;;;;;;;;;5069253;28;20052;-68
2023/05/08 08:35:47;;;;;;;7.25;4.25;;;;;;;;;;5072540;28;20047;-67
2023/05/08 08:38:14;;;;;;;6.15;4.32;;;;;;;;;;5072500;28;20044;-68
2023/05/08 08:40:41;;;;;;;4.30;3.90;;;;;;;;;;5073463;28;20067;-68
2023/05/08 08:43:07;;;;;;;4.82;4.38;;;;;;;;;;5072763;28;20048;-67
2023/05/08 08:45:36;;;;;;;4.90;4.40;;;;;;;;;;5073098;28;20041;-67
2023/05/08 08:48:04;;;;;;;4.50;4.05;;;;;;;;;;5072502;28;20135;-68
2023/05/08 08:50:32;;;;;;;4.45;4.05;;;;;;;;;;5073661;28;20062;-69
2023/05/08 08:53:07;;;;;;;6.32;5.05;;;;;;;;;;5072503;28;20051;-68
2023/05/08 08:55:38;;;;;;;5.03;4.53;;;;;;;;;;5071928;28;20056;-69
2023/05/08 08:58:15;;;;;;;5.22;4.60;;;;;;;;;;5071900;28;20044;-69
2023/05/08 09:00:43;;;;;;;5.20;4.70;;;;;;;;;;5071786;28;20052;-70
2023/05/08 09:03:10;;;;;;;7.03;5.13;;;;;;;;;;5072169;28;20438;-70
2023/05/08 09:05:37;;;;;;;6.63;5.57;;;;;;;;;;5084574;28;20044;-69
2023/05/08 09:08:05;;;;;;;8.15;5.63;;;;;;;;;;5092058;28;20052;-68
2023/05/08 09:10:34;;;;;;;5.72;5.13;;;;;;;;;;5091798;28;20052;-69
2023/05/08 09:13:01;;;;;;;8.68;5.68;;;;;;;;;;5092090;28;20136;-68
2023/05/08 09:15:28;;;;;;;5.90;4.80;;;;;;;;;;5092076;28;20041;-68
2023/05/08 09:17:56;;;;;;;7.90;5.28;;;;;;;;;;5091395;28;20489;-69
2023/05/08 09:20:22;;;;;;;6.07;4.85;;;;;;;;;;5092361;28;20048;-69
2023/05/08 09:22:49;;;;;;;5.13;4.63;;;;;;;;;;5091954;28;20055;-68
2023/05/08 09:25:17;;;;;;;5.90;5.20;;;;;;;;;;5092016;28;20048;-69
2023/05/08 09:27:44;;;;;;;5.10;4.60;;;;;;;;;;5090832;28;20062;-69
2023/05/08 09:30:13;;;;;;;6.53;5.18;;;;;;;;;;5092645;28;20070;-69
2023/05/08 09:32:41;;;;;;;5.75;4.93;;;;;;;;;;5091343;28;20101;-69
2023/05/08 09:35:10;;;;;;;7.78;6.03;;;;;;;;;;5080529;28;20040;-69
2023/05/08 09:37:39;;;;;;;7.35;5.82;;;;;;;;;;5070133;28;20052;-69
2023/05/08 09:40:19;;;;;;;6.95;5.55;;;;;;;;;;5087886;28;20446;-69
2023/05/08 09:42:46;;;;;;;6.82;5.43;;;;;;;;;;5091951;28;20046;-69
2023/05/08 09:45:26;;;;;;;5.93;5.05;;;;;;;;;;5092010;28;20051;-69
2023/05/08 09:47:53;;;;;;;7.65;5.47;;;;;;;;;;5090892;28;20063;-69
2023/05/08 09:50:21;;;;;;;7.22;4.65;;;;;;;;;;5091201;28;20048;-68
2023/05/08 09:52:49;;;;;;;6.15;5.50;;;;;;;;;;5091470;28;20044;-68
2023/05/08 09:55:20;;;;;;;7.30;4.88;;;;;;;;;;5094681;28;20044;-68
2023/05/08 09:57:55;;;;;;;6.75;4.70;;;;;;;;;;5091500;28;20573;-68
2023/05/08 10:00:23;;;;;;;5.35;4.85;;;;;;;;;;5071581;28;20127;-67
2023/05/08 10:02:57;;;;;;;5.45;4.95;;;;;;;;;;5071180;28;20047;-68
2023/05/08 10:05:28;;;;;;;5.20;4.70;;;;;;;;;;5082365;28;20375;-68
2023/05/08 10:07:55;;;;;;;5.60;5.10;;;;;;;;;;5090975;28;20319;-68
2023/05/08 10:10:26;;;;;;;5.15;4.65;;;;;;;;;;5091468;28;20048;-68
2023/05/08 10:12:54;;;;;;;8.20;4.43;;;;;;;;;;5090835;28;20413;-68
2023/05/08 10:15:22;;;;;;;5.22;4.72;;;;;;;;;;5090936;28;20430;-68
2023/05/08 10:17:55;;;;;;;4.80;4.30;;;;;;;;;;5090711;28;20043;-69
2023/05/08 10:20:23;;;;;;;5.25;4.75;;;;;;;;;;5091124;28;20093;-69
2023/05/08 10:22:53;;;;;;;5.57;5.00;;;;;;;;;;5091381;28;20137;-70
2023/05/08 10:25:22;;;;;;;5.20;4.70;;;;;;;;;;5091070;28;20050;-69
2023/05/08 10:27:56;;;;;;;5.40;4.32;;;;;;;;;;5093115;28;20052;-68
2023/05/08 10:30:25;;;;;;;4.75;4.30;;;;;;;;;;5090501;28;20469;-68
2023/05/08 10:32:54;;;;;;;5.32;4.38;;;;;;;;;;5090971;28;20055;-68
2023/05/08 10:35:22;;;;;;;5.05;4.18;;;;;;;;;;5090064;28;20370;-67
2023/05/08 10:37:49;;;;;;;4.68;4.00;;;;;;;;;;5080712;28;20052;-68
2023/05/08 10:40:20;;;;;;;4.15;3.75;;;;;;;;;;5069777;28;20051;-68
2023/05/08 10:42:47;;;;;;;4.47;3.88;;;;;;;;;;5070306;28;20540;-67
2023/05/08 10:45:14;;;;;;;5.88;3.33;;;;;;;;;;5070456;28;20076;-68
2023/05/08 10:47:57;;;;;;;6.13;4.07;;;;;;;;;;5070417;28;20045;-68
2023/05/08 10:50:37;;;;;;;3.92;3.30;;;;;;;;;;5071274;28;20049;-68
2023/05/08 10:53:07;;;;;;;4.25;3.85;;;;;;;;;;5070185;28;20048;-68
2023/05/08 10:55:37;;;;;;;3.83;3.42;;;;;;;;;;5070340;28;20049;-68
2023/05/08 10:58:13;;;;;;;3.47;3.17;;;;;;;;;;5069423;28;20076;-68
2023/05/08 11:01:15;;;;;;;4.55;3.38;;;;;;;;;;5070432;28;20048;-69
2023/05/08 11:03:44;;;;;;;5.20;4.70;;;;;;;;;;5097487;22;20563;-67
2023/05/08 11:06:11;;;;;;;4.10;3.70;;;;;;;;;;5072773;28;20048;-69
2023/05/08 11:08:46;;;;;;;5.72;4.80;;;;;;;;;;5069722;28;20137;-69
2023/05/08 11:11:21;;;;;;;4.50;3.25;;;;;;;;;;5070432;28;20044;-69
2023/05/08 11:13:53;;;;;;;3.95;3.60;;;;;;;;;;5070149;28;20125;-68
2023/05/08 11:17:07;;;;;;;5.95;4.20;;;;;;;;;;5069738;28;20083;-69
2023/05/08 11:19:35;;;;;;;4.88;3.42;;;;;;;;;;5081177;28;20048;-69
2023/05/08 11:22:20;;;;;;;4.60;3.25;;;;;;;;;;5090193;28;20135;-68
2023/05/08 11:24:48;;;;;;;4.53;3.42;;;;;;;;;;5090144;28;20066;-69
2023/05/08 11:27:16;;;;;;;4.60;3.00;;;;;;;;;;5089909;28;20044;-69
2023/05/08 11:29:43;;;;;;;5.00;3.50;;;;;;;;;;5090007;28;20058;-69
2023/05/08 11:32:10;;;;;;;4.30;3.50;;;;;;;;;;5090405;28;20048;-69
2023/05/08 11:34:47;;;;;;;4.10;3.63;;;;;;;;;;5090309;28;20048;-69
2023/05/08 11:37:18;;;;;;;4.15;3.63;;;;;;;;;;5089971;28;20152;-69
2023/05/08 11:39:44;;;;;;;4.95;3.40;;;;;;;;;;5090565;28;20393;-69
2023/05/08 11:42:37;;;;;;;3.80;3.40;;;;;;;;;;5090120;28;20481;-69
2023/05/08 11:45:08;;;;;;;3.78;3.28;;;;;;;;;;5090264;28;20106;-69
2023/05/08 11:47:38;;;;;;;2.90;2.70;;;;;;;;;;5089739;28;20056;-68
2023/05/08 11:50:06;;;;;;;4.75;3.22;;;;;;;;;;5090680;28;20110;-69
2023/05/08 11:52:34;;;;;;;4.78;3.40;;;;;;;;;;5090108;28;20048;-69
2023/05/08 11:55:03;;;;;;;3.60;3.30;;;;;;;;;;5090590;28;20046;-69
2023/05/08 11:57:32;;;;;;;3.60;3.30;;;;;;;;;;5090301;28;20054;-69
2023/05/08 12:00:04;;;;;;;3.55;3.20;;;;;;;;;;5089964;28;20048;-68
2023/05/08 12:02:38;;;;;;;5.57;3.10;;;;;;;;;;5090263;28;20051;-69
2023/05/08 12:05:05;;;;;;;3.35;3.05;;;;;;;;;;5090314;28;20358;-69
2023/05/08 12:07:32;;;;;;;4.55;2.80;;;;;;;;;;5090122;28;20056;-69
2023/05/08 12:10:01;;;;;;;2.95;2.65;;;;;;;;;;5091662;28;20048;-69
2023/05/08 12:12:37;;;;;;;3.33;2.95;;;;;;;;;;5093671;28;20131;-69
2023/05/08 12:15:11;;;;;;;3.30;3.00;;;;;;;;;;5094540;28;20044;-68
2023/05/08 12:17:37;;;;;;;3.38;3.08;;;;;;;;;;5093965;28;20070;-69
2023/05/08 12:20:14;;;;;;;3.83;3.40;;;;;;;;;;5093940;28;20044;-68
2023/05/08 12:22:41;;;;;;;5.78;3.45;;;;;;;;;;5093970;28;20087;-69
2023/05/08 12:25:10;;;;;;;3.53;3.22;;;;;;;;;;5093633;28;20048;-69
2023/05/08 12:27:37;;;;;;;4.25;3.33;;;;;;;;;;5093500;28;20040;-69
2023/05/08 12:30:07;;;;;;;4.53;3.20;;;;;;;;;;5093877;28;20135;-69
2023/05/08 12:32:37;;;;;;;5.50;2.90;;;;;;;;;;5093564;28;20040;-69
2023/05/08 12:35:05;;;;;;;3.00;2.70;;;;;;;;;;5093643;28;20116;-69
2023/05/08 12:37:35;;;;;;;5.70;3.33;;;;;;;;;;5092889;28;20048;-69
2023/05/08 12:40:02;;;;;;;3.65;2.88;;;;;;;;;;5093907;28;20066;-68
2023/05/08 12:42:47;;;;;;;3.30;3.00;;;;;;;;;;5093308;28;20183;-69
2023/05/08 12:45:18;;;;;;;3.22;2.90;;;;;;;;;;5093364;28;20127;-69
2023/05/08 12:47:50;;;;;;;3.42;3.13;;;;;;;;;;5092732;28;20109;-69
2023/05/08 12:50:17;;;;;;;;;;;;;;;;;;5094018;28;20071;-69
2023/05/08 12:52:46;;;;;;;3.60;2.97;;;;;;;;;;5093347;28;19926;-69
2023/05/08 12:55:23;;;;;;;4.30;2.92;;;;;;;;;;5093093;28;20059;-69
2023/05/08 12:57:50;;;;;;;3.22;2.60;;;;;;;;;;5092821;28;20056;-69
2023/05/08 13:00:18;;;;;;;3.53;2.92;;;;;;;;;;5093479;28;20046;-69
2023/05/08 13:02:54;;;;;;;3.08;2.78;;;;;;;;;;5093621;28;20047;-69
2023/05/08 13:05:24;;;;;;;3.85;3.00;;;;;;;;;;5093190;28;20059;-69
2023/05/08 13:07:51;;;;;;;3.45;2.72;;;;;;;;;;5093059;28;20044;-69
2023/05/08 13:10:18;;;;;;;3.13;2.67;;;;;;;;;;5092437;28;20097;-69
2023/05/08 13:12:45;;;;;;;3.13;2.78;;;;;;;;;;5092803;28;20052;-69
2023/05/08 13:15:12;;;;;;;3.30;3.00;;;;;;;;;;5092966;28;20094;-69
2023/05/08 13:17:38;;;;;;;3.58;2.85;;;;;;;;;;5092783;28;20040;-69
2023/05/08 13:20:08;;;;;;;3.78;3.15;;;;;;;;;;5092447;28;20409;-69
2023/05/08 13:22:34;;;;;;;3.03;2.70;;;;;;;;;;5093043;28;20109;-69
2023/05/08 13:25:01;;;;;;;3.28;2.58;;;;;;;;;;5092067;28;20079;-69
2023/05/08 13:27:27;;;;;;;5.90;3.10;;;;;;;;;;5092671;28;20054;-69
2023/05/08 13:29:54;;;;;;;3.85;3.10;;;;;;;;;;5091395;28;20086;-69
2023/05/08 13:32:20;;;;;;;4.72;3.08;;;;;;;;;;5092873;28;20048;-70
2023/05/08 13:34:47;;;;;;;3.55;3.05;;;;;;;;;;5092565;28;20052;-67
2023/05/08 13:37:15;;;;;;;3.00;2.63;;;;;;;;;;5092381;28;20168;-69
2023/05/08 13:39:41;;;;;;;6.85;3.15;;;;;;;;;;5092120;28;20044;-69
2023/05/08 13:42:08;;;;;;;3.42;3.13;;;;;;;;;;5092346;28;20405;-69
2023/05/08 13:44:34;;;;;;;3.13;2.80;;;;;;;;;;5092276;28;20489;-69
2023/05/08 13:47:01;;;;;;;3.40;3.10;;;;;;;;;;5092245;28;20054;-69
2023/05/08 13:49:28;;;;;;;3.20;2.90;;;;;;;;;;5092040;28;20077;-69
2023/05/08 13:51:54;;;;;;;4.60;2.97;;;;;;;;;;5092420;28;20444;-69
2023/05/08 13:54:22;;;;;;;3.38;3.08;;;;;;;;;;5091945;28;20056;-69
2023/05/08 13:56:49;;;;;;;3.78;3.47;;;;;;;;;;5092033;28;20044;-69
2023/05/08 13:59:15;;;;;;;5.85;3.45;;;;;;;;;;5092141;28;20094;-69
2023/05/08 14:01:42;;;;;;;3.83;3.50;;;;;;;;;;5091965;28;20048;-69
2023/05/08 14:04:09;;;;;;;4.93;3.70;;;;;;;;;;5091979;28;20390;-69
2023/05/08 14:06:35;;;;;;;5.78;2.80;;;;;;;;;;5091967;28;20055;-69
2023/05/08 14:09:02;;;;;;;4.85;3.33;;;;;;;;;;5092066;28;20040;-69
2023/05/08 14:11:30;;;;;;;5.32;4.25;;;;;;;;;;5091667;28;20097;-69
2023/05/08 14:13:56;;;;;;;4.90;3.60;;;;;;;;;;5091760;28;20044;-69
2023/05/08 14:16:23;;;;;;;4.15;3.60;;;;;;;;;;5091441;28;20131;-69
2023/05/08 14:18:50;;;;;;;4.07;3.65;;;;;;;;;;5091508;28;20040;-69
2023/05/08 14:21:16;;;;;;;3.83;3.50;;;;;;;;;;5091652;28;20500;-69
2023/05/08 14:23:43;;;;;;;6.43;3.25;;;;;;;;;;5091474;28;20056;-69
2023/05/08 14:26:10;;;;;;;4.15;3.60;;;;;;;;;;5091269;28;20044;-69
2023/05/08 14:28:38;;;;;;;4.18;3.53;;;;;;;;;;5091767;28;20403;-69
2023/05/08 14:31:05;;;;;;;4.18;3.88;;;;;;;;;;5091356;28;20433;-68
2023/05/08 14:33:31;;;;;;;4.00;3.63;;;;;;;;;;5090689;28;20044;-69
2023/05/08 14:35:58;;;;;;;4.28;3.88;;;;;;;;;;5090899;28;20050;-68
2023/05/08 14:38:24;;;;;;;4.03;3.72;;;;;;;;;;5091019;28;20054;-68
2023/05/08 14:40:53;;;;;;;4.07;3.70;;;;;;;;;;5090799;28;20079;-68
2023/05/08 14:43:19;;;;;;;6.32;3.83;;;;;;;;;;5091099;28;20493;-69
2023/05/08 14:45:47;;;;;;;5.15;4.15;;;;;;;;;;5091181;28;20109;-68
2023/05/08 14:48:14;;;;;;;4.63;4.20;;;;;;;;;;5090391;28;20055;-68
2023/05/08 14:50:41;;;;;;;4.68;3.83;;;;;;;;;;5090689;28;20597;-68
2023/05/08 14:53:07;;;;;;;4.18;3.78;;;;;;;;;;5090639;28;20047;-68
2023/05/08 14:55:34;;;;;;;4.28;3.60;;;;;;;;;;5091149;28;20047;-68